Time;durP1;ratioP1;P1;durP2;ratioP2;P2;SDS_P1;SDS_P2;PMS_P1;PMS_P2;Temp;Humidity;BMP_temperature;BMP_pressure;BME280_temperature;BME280_humidity;BME280_pressure;Samples;Min_cycle;Max_cycle;Signal;HPM_P1;HPM_P2
2023/08/26 00:01:34;;;;;;;;;1.25;1.00;;;;;19.68;50.83;101026.75;5091523;27;66976;-64
2023/08/26 00:03:59;;;;;;;;;1.00;1.00;;;;;19.70;51.12;101026.59;5075048;27;61622;-65
2023/08/26 00:06:25;;;;;;;;;0.00;0.00;;;;;19.67;50.88;101031.28;5089865;27;63497;-64
2023/08/26 00:08:51;;;;;;;;;1.67;1.33;;;;;19.69;51.20;101024.91;5080418;27;45294;-64
2023/08/26 00:11:17;;;;;;;;;1.00;1.00;;;;;19.70;51.01;101035.56;5094344;27;45490;-65
2023/08/26 00:13:42;;;;;;;;;1.00;1.00;;;;;19.72;50.89;101035.44;5089650;27;66876;-64
2023/08/26 00:16:07;;;;;;;;;0.50;0.50;;;;;19.69;50.38;101028.47;5092759;27;73294;-64
2023/08/26 00:18:32;;;;;;;;;1.00;1.00;;;;;19.63;50.95;101027.16;5090475;27;67729;-64
2023/08/26 00:20:58;;;;;;;;;1.00;1.00;;;;;19.61;50.60;101028.25;5090862;27;69144;-64
2023/08/26 00:23:23;;;;;;;;;1.25;1.25;;;;;19.59;51.27;101019.44;5092378;27;45522;-64
2023/08/26 00:25:49;;;;;;;;;1.00;1.00;;;;;19.62;51.21;101017.34;5087044;27;54951;-64
2023/08/26 00:28:14;;;;;;;;;1.00;1.00;;;;;19.62;51.30;101028.13;5085727;27;45730;-64
2023/08/26 00:30:39;;;;;;;;;1.00;1.00;;;;;19.62;50.84;101022.72;5067979;27;67957;-64
2023/08/26 00:33:06;;;;;;;;;2.00;1.75;;;;;19.64;51.06;101019.91;5075658;27;69896;-65
2023/08/26 00:35:31;;;;;;;;;1.00;1.00;;;;;19.67;51.50;101022.31;5092093;27;46298;-65
2023/08/26 00:37:56;;;;;;;;;2.25;1.00;;;;;19.67;51.04;101014.22;5080996;27;70255;-64
2023/08/26 00:40:22;;;;;;;;;1.00;1.00;;;;;19.69;51.40;101016.81;5091910;27;62559;-65
2023/08/26 00:42:47;;;;;;;;;1.75;1.25;;;;;19.71;51.34;101014.81;5095487;27;49901;-65
2023/08/26 00:45:13;;;;;;;;;1.00;1.00;;;;;19.71;51.36;101009.44;5066806;27;63288;-65
2023/08/26 00:47:39;;;;;;;;;2.00;1.00;;;;;19.70;50.84;101005.00;5085879;27;45463;-64
2023/08/26 00:50:04;;;;;;;;;0.25;0.25;;;;;19.66;50.69;101010.69;5095648;27;55865;-64
2023/08/26 00:52:30;;;;;;;;;2.25;0.00;;;;;19.64;51.25;101006.41;5085826;27;45618;-65
2023/08/26 00:54:56;;;;;;;;;0.00;0.00;;;;;19.61;51.18;101002.13;5100461;27;46354;-65
2023/08/26 00:57:21;;;;;;;;;1.00;1.00;;;;;19.58;51.06;101002.41;5094491;27;45753;-64
2023/08/26 00:59:47;;;;;;;;;1.00;1.00;;;;;19.57;50.70;101006.06;5100025;27;67758;-64
2023/08/26 01:02:12;;;;;;;;;2.00;1.00;;;;;19.57;51.10;101005.19;5092678;27;45320;-64
2023/08/26 01:04:37;;;;;;;;;2.00;2.00;;;;;19.52;51.30;101002.91;5067309;28;62887;-64
2023/08/26 01:07:04;;;;;;;;;3.00;2.00;;;;;19.48;51.37;101005.00;5072937;28;46255;-64
2023/08/26 01:09:29;;;;;;;;;1.75;1.75;;;;;19.41;51.34;101003.84;5084907;27;45334;-64
2023/08/26 01:12:10;;;;;;;;;1.00;1.00;;;;;19.35;51.38;100998.94;5090849;27;69020;-65
2023/08/26 01:14:45;;;;;;;;;1.00;1.00;;;;;19.29;51.84;101000.28;5077206;28;46325;-64
2023/08/26 01:17:11;;;;;;;;;1.00;1.00;;;;;19.23;51.30;101000.84;5072712;27;45736;-64
2023/08/26 01:19:38;;;;;;;;;0.75;0.75;;;;;19.18;52.08;101003.06;5087897;27;64162;-64
2023/08/26 01:22:08;;;;;;;;;1.25;1.00;;;;;19.14;52.18;101004.31;5072268;27;45553;-64
2023/08/26 01:24:35;;;;;;;;;1.00;1.00;;;;;19.13;51.95;101005.28;5093427;27;45424;-64
2023/08/26 01:27:00;;;;;;;;;1.00;1.00;;;;;19.09;51.86;101004.66;5092786;27;45460;-64
2023/08/26 01:29:26;;;;;;;;;1.50;1.00;;;;;19.07;52.07;101005.78;5092576;27;45409;-65
2023/08/26 01:32:15;;;;;;;;;1.75;1.00;;;;;19.01;52.04;101007.16;5096442;27;45868;-64
2023/08/26 01:34:43;;;;;;;;;2.50;1.00;;;;;18.98;52.12;101005.56;5089967;27;47045;-65
2023/08/26 01:37:09;;;;;;;;;0.00;0.00;;;;;18.95;52.57;101007.66;5075577;28;45379;-65
2023/08/26 01:39:35;;;;;;;;;2.00;2.00;;;;;18.94;52.39;101011.31;5068693;27;65633;-64
2023/08/26 01:42:02;;;;;;;;;1.33;1.33;;;;;18.94;52.58;101006.81;5069134;28;45798;-64
2023/08/26 01:44:28;;;;;;;;;2.75;1.00;;;;;18.93;52.37;100996.13;5076012;27;46228;-64
2023/08/26 01:46:54;;;;;;;;;1.00;1.00;;;;;18.94;52.74;100992.47;5084301;27;69123;-64
2023/08/26 01:49:19;;;;;;;;;1.00;1.00;;;;;18.94;52.29;100989.75;5091133;27;45517;-65
2023/08/26 01:51:45;;;;;;;;;3.00;1.00;;;;;18.96;52.50;100988.66;5095376;27;56736;-65
2023/08/26 01:54:10;;;;;;;;;0.67;0.67;;;;;19.01;52.19;100985.59;5085722;27;68403;-64
2023/08/26 01:56:36;;;;;;;;;1.00;1.00;;;;;19.06;52.22;100985.19;5091578;27;45745;-64
2023/08/26 01:59:02;;;;;;;;;2.00;2.00;;;;;19.07;52.30;100985.06;5094399;27;45421;-65
2023/08/26 02:01:28;;;;;;;;;1.00;1.00;;;;;19.09;52.31;100988.50;5073404;27;45934;-65
2023/08/26 02:03:53;;;;;;;;;2.00;1.00;;;;;19.06;52.23;100979.81;5097142;27;45406;-64
2023/08/26 02:06:19;;;;;;;;;2.00;1.25;;;;;18.99;52.17;100974.94;5095545;27;72070;-65
2023/08/26 02:08:44;;;;;;;;;0.00;0.00;;;;;18.90;52.59;100975.69;5092461;27;45289;-64
2023/08/26 02:11:09;;;;;;;;;2.00;2.00;;;;;18.85;52.50;100972.47;5097193;27;47946;-65
2023/08/26 02:13:36;;;;;;;;;1.00;1.00;;;;;18.80;52.47;100972.88;5094574;27;46229;-64
2023/08/26 02:16:01;;;;;;;;;1.75;0.75;;;;;18.75;52.67;100972.38;5090567;27;45363;-65
2023/08/26 02:18:26;;;;;;;;;2.00;1.00;;;;;18.70;52.61;100973.75;5091130;27;49123;-65
2023/08/26 02:20:52;;;;;;;;;1.00;1.00;;;;;18.64;52.82;100975.97;5084728;27;52580;-65
2023/08/26 02:23:17;;;;;;;;;0.00;0.00;;;;;18.60;53.05;100973.63;5091557;27;68002;-65
2023/08/26 02:25:43;;;;;;;;;0.00;0.00;;;;;18.55;53.21;100968.66;5095576;27;70579;-65
2023/08/26 02:28:08;;;;;;;;;1.00;1.00;;;;;18.50;53.31;100973.53;5097494;27;46770;-65
2023/08/26 02:30:34;;;;;;;;;1.00;1.00;;;;;18.47;53.19;100965.69;5094166;27;45346;-65
2023/08/26 02:33:00;;;;;;;;;1.50;0.50;;;;;18.46;53.44;100963.97;5094052;27;46222;-65
2023/08/26 02:35:26;;;;;;;;;0.00;0.00;;;;;18.45;53.58;100959.59;5094719;27;45264;-65
2023/08/26 02:37:51;;;;;;;;;0.00;0.00;;;;;18.43;53.37;100966.94;5095306;27;70019;-65
2023/08/26 02:40:16;;;;;;;;;2.00;1.00;;;;;18.45;53.26;100959.59;5073062;27;62530;-65
2023/08/26 02:42:42;;;;;;;;;0.00;0.00;;;;;18.45;53.63;100954.22;5095593;27;68537;-64
2023/08/26 02:45:07;;;;;;;;;0.67;0.00;;;;;18.45;53.78;100959.59;5095370;27;67746;-65
2023/08/26 02:47:32;;;;;;;;;2.67;1.00;;;;;18.46;53.64;100955.91;5096532;27;45350;-65
2023/08/26 02:49:58;;;;;;;;;1.00;1.00;;;;;18.47;53.71;100954.91;5095901;27;65698;-65
2023/08/26 02:52:23;;;;;;;;;2.33;1.00;;;;;18.48;53.59;100949.41;5094536;27;46357;-65
2023/08/26 02:54:49;;;;;;;;;2.67;1.00;;;;;18.50;53.47;100947.47;5093693;27;69146;-64
2023/08/26 02:57:14;;;;;;;;;1.00;1.00;;;;;18.51;53.67;100949.19;5092129;27;66730;-65
2023/08/26 02:59:40;;;;;;;;;0.67;0.67;;;;;18.52;53.74;100948.19;5094187;27;45452;-65
2023/08/26 03:02:06;;;;;;;;;0.50;0.50;;;;;18.51;53.74;100948.31;5096686;27;46142;-65
2023/08/26 03:04:31;;;;;;;;;2.33;1.00;;;;;18.47;53.74;100947.72;5095960;27;45382;-65
2023/08/26 03:06:56;;;;;;;;;1.00;1.00;;;;;18.44;54.03;100953.34;5096561;27;45644;-65
2023/08/26 03:09:22;;;;;;;;;1.67;1.67;;;;;18.41;53.99;100947.34;5093494;27;68410;-65
2023/08/26 03:11:47;;;;;;;;;1.00;1.00;;;;;18.35;54.06;100941.50;5092004;27;46155;-65
2023/08/26 03:14:14;;;;;;;;;1.00;1.00;;;;;18.32;54.18;100944.41;5094924;27;68523;-65
2023/08/26 03:16:40;;;;;;;;;1.67;1.67;;;;;18.30;54.28;100940.13;5087500;27;45528;-65
2023/08/26 03:19:05;;;;;;;;;1.00;1.00;;;;;18.27;54.53;100930.47;5088249;27;46527;-65
2023/08/26 03:21:31;;;;;;;;;1.00;1.00;;;;;18.26;54.85;100936.81;5091744;27;74106;-65
2023/08/26 03:23:57;;;;;;;;;1.00;1.00;;;;;18.25;54.74;100935.13;5086067;27;45479;-65
2023/08/26 03:26:23;;;;;;;;;2.00;1.00;;;;;18.21;54.61;100939.03;5096933;27;45228;-65
2023/08/26 03:28:48;;;;;;;;;0.00;0.00;;;;;18.17;54.61;100940.25;5095645;27;45581;-65
2023/08/26 03:31:14;;;;;;;;;2.00;0.00;;;;;18.14;54.93;100935.13;5095215;27;46114;-64
2023/08/26 03:33:40;;;;;;;;;0.33;0.00;;;;;18.10;55.08;100939.91;5072965;27;51236;-63
2023/08/26 03:36:05;;;;;;;;;0.00;0.00;;;;;18.07;54.89;100937.47;5096066;27;45377;-64
2023/08/26 03:38:32;;;;;;;;;1.00;1.00;;;;;18.03;54.88;100941.38;5094260;27;45286;-64
2023/08/26 03:40:57;;;;;;;;;0.67;0.67;;;;;18.00;54.99;100945.16;5095530;27;47132;-64
2023/08/26 03:43:23;;;;;;;;;0.67;0.67;;;;;17.98;55.03;100941.72;5092293;27;45497;-64
2023/08/26 03:45:48;;;;;;;;;2.00;2.00;;;;;17.97;55.11;100940.00;5082116;27;62890;-64
2023/08/26 03:48:13;;;;;;;;;2.00;0.33;;;;;17.96;55.13;100943.66;5089769;27;70392;-63
2023/08/26 03:50:39;;;;;;;;;2.00;1.00;;;;;17.95;55.27;100949.19;5097554;27;69152;-64
2023/08/26 03:53:04;;;;;;;;;3.00;1.00;;;;;17.91;55.21;100937.75;5090018;27;70175;-64
2023/08/26 03:55:36;;;;;;;;;1.00;1.00;;;;;17.89;55.48;100942.44;5082902;27;45332;-64
2023/08/26 03:58:01;;;;;;;;;1.67;0.33;;;;;17.87;55.19;100938.97;5092624;27;45480;-64
2023/08/26 04:00:26;;;;;;;;;1.00;1.00;;;;;17.85;55.61;100947.19;5089421;27;45981;-64
2023/08/26 04:02:52;;;;;;;;;2.00;2.00;;;;;17.81;55.54;100943.03;5092605;27;61339;-63
2023/08/26 04:05:18;;;;;;;;;1.00;1.00;;;;;17.78;56.07;100940.59;5092329;27;57346;-64
2023/08/26 04:07:43;;;;;;;;;1.00;1.00;;;;;17.74;56.01;100939.09;5091398;27;67976;-64
2023/08/26 04:10:10;;;;;;;;;1.00;1.00;;;;;17.71;56.17;100933.13;5084234;27;45673;-64
2023/08/26 04:12:35;;;;;;;;;2.67;2.00;;;;;17.67;56.12;100940.56;5098838;27;45434;-64
2023/08/26 04:15:01;;;;;;;;;1.00;1.00;;;;;17.66;56.43;100947.78;5096671;27;65921;-64
2023/08/26 04:17:26;;;;;;;;;1.00;1.00;;;;;17.64;56.82;100940.81;5089468;27;45343;-64
2023/08/26 04:19:51;;;;;;;;;1.00;1.00;;;;;17.57;56.96;100932.34;5085374;27;73900;-64
2023/08/26 04:22:17;;;;;;;;;1.33;1.33;;;;;17.52;57.18;100935.41;5091180;27;45507;-64
2023/08/26 04:24:42;;;;;;;;;2.00;1.00;;;;;17.47;57.55;100942.09;5085213;27;65405;-64
2023/08/26 04:27:08;;;;;;;;;1.00;1.00;;;;;17.43;58.51;100933.44;5095724;27;66260;-64
2023/08/26 04:29:33;;;;;;;;;1.67;1.67;;;;;17.40;57.87;100930.94;5088624;27;45986;-64
2023/08/26 04:31:58;;;;;;;;;4.67;2.00;;;;;17.39;57.90;100936.44;5097234;27;68500;-64
2023/08/26 04:34:24;;;;;;;;;1.33;1.33;;;;;17.38;58.11;100937.41;5101141;27;61130;-64
2023/08/26 04:36:49;;;;;;;;;3.00;2.67;;;;;17.39;58.67;100937.31;5096416;27;65336;-64
2023/08/26 04:39:14;;;;;;;;;2.00;2.00;;;;;17.42;58.78;100936.22;5092444;27;61101;-64
2023/08/26 04:41:40;;;;;;;;;3.00;1.67;;;;;17.42;58.82;100933.53;5095557;27;45380;-65
2023/08/26 04:44:07;;;;;;;;;3.33;1.67;;;;;17.48;58.74;100930.38;5091023;27;45687;-65
2023/08/26 04:46:33;;;;;;;;;1.67;1.33;;;;;17.53;58.80;100941.63;5094161;27;45369;-65
2023/08/26 04:48:58;;;;;;;;;2.00;2.00;;;;;17.58;58.83;100941.28;5096577;27;46013;-64
2023/08/26 04:51:23;;;;;;;;;2.33;1.00;;;;;17.59;59.32;100933.09;5094809;27;57615;-64
2023/08/26 04:53:48;;;;;;;;;0.00;0.00;;;;;17.58;59.11;100928.69;5093836;27;60958;-64
2023/08/26 04:56:15;;;;;;;;;2.00;2.00;;;;;17.59;59.03;100935.78;5092641;27;66748;-64
2023/08/26 04:58:40;;;;;;;;;2.00;2.00;;;;;17.60;59.11;100934.81;5098346;27;47268;-64
2023/08/26 05:01:05;;;;;;;;;1.00;1.00;;;;;17.62;59.04;100932.84;5089938;27;45414;-64
2023/08/26 05:03:31;;;;;;;;;3.00;1.00;;;;;17.60;59.12;100933.94;5100441;27;45522;-64
2023/08/26 05:05:56;;;;;;;;;3.67;1.00;;;;;17.53;59.24;100937.13;5099194;27;45394;-65
2023/08/26 05:08:21;;;;;;;;;0.33;0.33;;;;;17.49;59.62;100942.84;5086630;27;67179;-65
2023/08/26 05:10:47;;;;;;;;;1.00;1.00;;;;;17.46;59.55;100946.63;5081955;27;54963;-65
2023/08/26 05:13:12;;;;;;;;;1.00;1.00;;;;;17.39;60.31;100956.16;5080962;27;59787;-64
2023/08/26 05:15:37;;;;;;;;;2.00;2.00;;;;;17.34;59.86;100956.47;5093866;27;45319;-64
2023/08/26 05:18:03;;;;;;;;;3.00;2.67;;;;;17.31;60.41;100962.09;5094007;27;71475;-64
2023/08/26 05:20:29;;;;;;;;;0.67;0.33;;;;;17.28;60.44;100967.69;5095560;27;45324;-65
2023/08/26 05:22:55;;;;;;;;;1.00;1.00;;;;;17.29;60.36;100969.41;5090115;27;45758;-64
2023/08/26 05:25:21;;;;;;;;;2.67;1.00;;;;;17.26;61.03;100966.97;5067536;27;45877;-64
2023/08/26 05:27:47;;;;;;;;;1.00;1.00;;;;;17.23;60.90;100966.34;5086283;27;70973;-65
2023/08/26 05:30:12;;;;;;;;;1.67;1.00;;;;;17.23;60.78;100969.88;5092216;27;45675;-65
2023/08/26 05:32:38;;;;;;;;;3.00;0.00;;;;;17.19;61.01;100958.53;5095241;27;62392;-65
2023/08/26 05:35:03;;;;;;;;;1.00;1.00;;;;;17.14;61.48;100962.50;5085078;27;45556;-65
2023/08/26 05:37:29;;;;;;;;;1.33;0.00;;;;;17.08;61.28;100968.34;5084632;27;46128;-64
2023/08/26 05:39:54;;;;;;;;;1.00;1.00;;;;;17.01;62.04;100968.81;5085059;27;45235;-64
2023/08/26 05:42:19;;;;;;;;;1.00;1.00;;;;;17.03;61.70;100966.00;5085099;27;45460;-65
2023/08/26 05:44:45;;;;;;;;;1.00;1.00;;;;;17.05;61.76;100963.19;5090074;27;66159;-65
2023/08/26 05:47:10;;;;;;;;;0.00;0.00;;;;;17.08;61.84;100957.59;5083422;27;72860;-65
2023/08/26 05:49:35;;;;;;;;;2.00;2.00;;;;;17.15;61.56;100953.47;5084915;27;45393;-64
2023/08/26 05:52:01;;;;;;;;;1.00;1.00;;;;;17.23;61.65;100947.53;5083669;27;63559;-64
2023/08/26 05:54:26;;;;;;;;;1.00;1.00;;;;;17.30;61.32;100948.75;5083229;27;68198;-65
2023/08/26 05:56:51;;;;;;;;;1.00;1.00;;;;;17.38;61.73;100948.16;5086287;27;73990;-64
2023/08/26 05:59:17;;;;;;;;;1.00;1.00;;;;;17.48;61.23;100943.81;5090182;27;71374;-64
2023/08/26 06:01:43;;;;;;;;;1.00;1.00;;;;;17.56;61.08;100941.41;5082595;27;63963;-64
2023/08/26 06:04:08;;;;;;;;;0.00;0.00;;;;;17.60;61.01;100956.31;5087784;27;45795;-65
2023/08/26 06:06:33;;;;;;;;;1.00;1.00;;;;;17.61;61.00;100949.09;5063087;27;59135;-65
2023/08/26 06:08:59;;;;;;;;;2.00;2.00;;;;;17.63;60.77;100950.69;5081637;27;45327;-65
2023/08/26 06:11:24;;;;;;;;;1.00;1.00;;;;;17.62;60.66;100946.28;5080450;27;45989;-64
2023/08/26 06:13:50;;;;;;;;;0.00;0.00;;;;;17.62;60.90;100957.03;5082634;27;45279;-65
2023/08/26 06:16:19;;;;;;;;;1.00;1.00;;;;;17.63;60.71;100956.06;5088017;27;46440;-65
2023/08/26 06:18:46;;;;;;;;;4.67;2.67;;;;;17.66;61.03;100949.59;5088030;27;45445;-65
2023/08/26 06:21:11;;;;;;;;;1.00;1.00;;;;;17.69;60.92;100955.59;5089092;27;45515;-65
2023/08/26 06:23:36;;;;;;;;;1.00;1.00;;;;;17.75;60.88;100964.19;5083469;27;67395;-65
2023/08/26 06:26:02;;;;;;;;;0.00;0.00;;;;;17.82;60.43;100960.00;5085360;27;46961;-65
2023/08/26 06:28:28;;;;;;;;;1.00;1.00;;;;;17.86;60.72;100956.13;5088669;27;61355;-65
2023/08/26 06:31:00;;;;;;;;;0.00;0.00;;;;;17.93;60.81;100957.38;5095672;27;45418;-65
2023/08/26 06:33:25;;;;;;;;;0.33;0.33;;;;;18.25;60.19;100948.59;5090040;27;45473;-65
2023/08/26 06:35:51;;;;;;;;;2.33;1.00;;;;;20.88;59.72;100952.41;5083140;27;45402;-65
2023/08/26 06:38:16;;;;;;;;;2.00;1.00;;;;;24.19;51.61;100944.53;5081802;27;45383;-65
2023/08/26 06:40:42;;;;;;;;;0.00;0.00;;;;;26.98;48.16;100936.31;5095762;27;46918;-65
2023/08/26 06:43:07;;;;;;;;;1.00;0.25;;;;;29.29;44.89;100950.09;5100640;27;45337;-65
2023/08/26 06:45:33;;;;;;;;;1.00;1.00;;;;;31.45;42.36;100943.50;5081135;27;45425;-66
2023/08/26 06:47:58;;;;;;;;;1.00;1.00;;;;;33.26;38.54;100953.03;5082722;27;45479;-66
2023/08/26 06:50:24;;;;;;;;;0.00;0.00;;;;;34.67;31.82;100955.19;5081994;27;61264;-63
2023/08/26 06:52:49;;;;;;;;;0.25;0.25;;;;;35.40;32.11;100953.28;5090228;27;45461;-63
2023/08/26 06:55:18;;;;;;;;;1.00;0.75;;;;;35.93;30.22;100950.66;5079586;27;45438;-64
2023/08/26 06:57:44;;;;;;;;;2.00;0.00;;;;;36.74;30.51;100956.22;5082292;27;45762;-63
2023/08/26 07:00:12;;;;;;;;;4.00;1.00;;;;;37.66;27.51;100949.78;5061814;28;45424;-63
2023/08/26 07:02:38;;;;;;;;;0.75;0.75;;;;;38.46;27.07;100946.69;5082317;27;45608;-70
2023/08/26 07:05:04;;;;;;;;;1.00;1.00;;;;;39.23;26.22;100947.53;5092212;27;75655;-67
2023/08/26 07:07:29;;;;;;;;;0.25;0.25;;;;;40.04;24.19;100948.34;5078251;27;45529;-67
2023/08/26 07:09:54;;;;;;;;;0.75;0.75;;;;;40.64;23.35;100951.66;5089719;27;45711;-68
2023/08/26 07:12:20;;;;;;;;;1.25;0.00;;;;;41.29;24.08;100944.75;5081992;27;70010;-66
2023/08/26 07:14:45;;;;;;;;;0.50;0.50;;;;;41.82;22.77;100948.03;5098546;27;65206;-67
2023/08/26 07:17:11;;;;;;;;;0.25;0.25;;;;;42.14;22.27;100946.00;5081676;27;64397;-68
2023/08/26 07:19:37;;;;;;;;;0.50;0.50;;;;;42.66;20.84;100949.38;5079128;28;45371;-66
2023/08/26 07:22:02;;;;;;;;;0.00;0.00;;;;;42.99;20.74;100946.91;5078579;27;67090;-65
2023/08/26 07:24:29;;;;;;;;;0.00;0.00;;;;;43.49;21.31;100941.13;5078534;28;45411;-65
2023/08/26 07:26:54;;;;;;;;;0.00;0.00;;;;;43.97;18.92;100940.38;5082331;27;45696;-64
2023/08/26 07:29:20;;;;;;;;;0.00;0.00;;;;;44.39;19.92;100943.50;5078190;28;45516;-66
2023/08/26 07:31:45;;;;;;;;;0.00;0.00;;;;;44.37;18.75;100934.53;5091575;27;64797;-66
2023/08/26 07:34:10;;;;;;;;;0.00;0.00;;;;;44.29;17.16;100933.25;5080826;27;65440;-66
2023/08/26 07:36:36;;;;;;;;;0.00;0.00;;;;;44.30;17.98;100928.47;5077724;27;65624;-66
2023/08/26 07:39:01;;;;;;;;;0.00;0.00;;;;;44.70;18.76;100937.44;5079228;28;45377;-66
2023/08/26 07:41:26;;;;;;;;;0.75;0.00;;;;;44.80;18.43;100934.50;5077660;27;63014;-67
2023/08/26 07:43:51;;;;;;;;;0.00;0.00;;;;;44.94;16.20;100934.53;5088068;27;72686;-65
2023/08/26 07:46:18;;;;;;;;;0.00;0.00;;;;;44.53;17.88;100930.41;5080395;27;66791;-65
2023/08/26 07:48:44;;;;;;;;;0.00;0.00;;;;;43.77;18.90;100927.44;5097866;27;45511;-65
2023/08/26 07:51:10;;;;;;;;;0.00;0.00;;;;;41.94;17.37;100942.16;5094434;27;45477;-65
2023/08/26 07:53:35;;;;;;;;;0.00;0.00;;;;;38.99;19.85;100938.66;5087686;27;45430;-65
2023/08/26 07:56:00;;;;;;;;;0.00;0.00;;;;;37.29;21.92;100934.47;5091641;27;63799;-65
2023/08/26 07:58:26;;;;;;;;;0.00;0.00;;;;;36.79;23.38;100938.00;5078028;28;51116;-67
2023/08/26 08:00:51;;;;;;;;;0.00;0.00;;;;;36.85;23.32;100940.66;5090997;27;45566;-66
2023/08/26 08:03:16;;;;;;;;;0.00;0.00;;;;;37.88;23.45;100947.91;5077507;27;72443;-66
2023/08/26 08:05:41;;;;;;;;;0.00;0.00;;;;;40.02;21.18;100948.59;5089564;27;64714;-66
2023/08/26 08:08:07;;;;;;;;;0.75;0.00;;;;;41.11;20.64;100952.56;5080116;27;58200;-67
2023/08/26 08:10:32;;;;;;;;;0.00;0.00;;;;;40.15;20.42;100952.03;5097833;27;61307;-66
2023/08/26 08:12:58;;;;;;;;;0.75;0.75;;;;;39.10;21.56;100951.56;5093691;27;46092;-65
2023/08/26 08:15:23;;;;;;;;;0.00;0.00;;;;;39.17;21.79;100954.09;5077282;27;71640;-65
2023/08/26 08:17:48;;;;;;;;;0.00;0.00;;;;;37.44;22.13;100958.03;5086378;27;62877;-66
2023/08/26 08:20:14;;;;;;;;;0.50;0.00;;;;;35.28;23.84;100971.75;5076779;27;45831;-66
2023/08/26 08:22:43;;;;;;;;;0.50;0.00;;;;;33.48;25.57;100979.16;5088551;27;58729;-65
2023/08/26 08:25:09;;;;;;;;;0.00;0.00;;;;;32.04;27.29;100982.16;5081229;27;45600;-65
2023/08/26 08:27:36;;;;;;;;;0.25;0.25;;;;;30.92;28.56;100990.13;5085891;27;45857;-65
2023/08/26 08:30:02;;;;;;;;;0.00;0.00;;;;;29.91;30.03;100984.13;5093131;27;45620;-65
2023/08/26 08:32:28;;;;;;;;;0.25;0.00;;;;;29.00;31.57;100985.59;5093282;27;46970;-65
2023/08/26 08:34:53;;;;;;;;;0.25;0.00;;;;;28.14;32.38;100990.81;5081546;27;45323;-65
2023/08/26 08:37:19;;;;;;;;;2.00;1.00;;;;;27.47;33.11;100993.28;5096497;27;54525;-65
2023/08/26 08:39:44;;;;;;;;;0.00;0.00;;;;;27.00;33.76;100991.53;5094373;27;45485;-65
2023/08/26 08:42:14;;;;;;;;;1.00;1.00;;;;;26.82;35.64;100989.13;5083489;27;46028;-65
2023/08/26 08:44:44;;;;;;;;;0.50;0.50;;;;;26.45;35.05;100996.91;5097044;27;45549;-65
2023/08/26 08:47:10;;;;;;;;;0.00;0.00;;;;;26.10;36.60;100996.38;5097960;27;45489;-65
2023/08/26 08:49:36;;;;;;;;;0.00;0.00;;;;;25.88;36.71;101001.47;5094100;27;45912;-65
2023/08/26 08:52:05;;;;;;;;;2.00;2.00;;;;;26.08;37.47;101003.84;5083555;27;47029;-66
2023/08/26 08:54:32;;;;;;;;;1.25;1.00;;;;;26.05;36.20;100999.59;5066355;28;45506;-65
2023/08/26 08:56:58;;;;;;;;;0.00;0.00;;;;;26.10;36.96;101004.56;5077302;27;45472;-65
2023/08/26 08:59:26;;;;;;;;;1.00;1.00;;;;;26.38;36.85;100996.78;5079843;27;45703;-66
2023/08/26 09:01:58;;;;;;;;;1.00;1.00;;;;;28.15;36.42;100995.25;5078672;27;45966;-65
2023/08/26 09:04:28;;;;;;;;;1.00;1.00;;;;;30.74;32.67;100990.69;5070334;27;45328;-66
2023/08/26 09:06:53;;;;;;;;;0.00;0.00;;;;;33.28;30.17;100993.13;5085436;27;45181;-65
2023/08/26 09:09:20;;;;;;;;;2.25;1.00;;;;;35.80;26.33;100990.47;5079891;27;45422;-65
2023/08/26 09:11:47;;;;;;;;;0.00;0.00;;;;;37.90;25.69;100994.81;5083128;27;46094;-65
2023/08/26 09:14:12;;;;;;;;;0.00;0.00;;;;;39.20;23.33;100998.94;5090478;27;45460;-66
2023/08/26 09:16:39;;;;;;;;;2.25;1.25;;;;;40.26;22.44;101005.81;5085168;27;69388;-66
2023/08/26 09:19:05;;;;;;;;;0.00;0.00;;;;;39.11;22.64;101008.81;5089253;27;45442;-66
2023/08/26 09:21:31;;;;;;;;;0.50;0.50;;;;;38.74;22.29;101008.72;5080616;27;45395;-65
2023/08/26 09:23:56;;;;;;;;;2.00;0.50;;;;;39.69;22.53;100992.38;5084514;27;45285;-65
2023/08/26 09:26:25;;;;;;;;;2.25;2.25;;;;;40.63;19.40;101000.13;5080425;27;45432;-66
2023/08/26 09:28:51;;;;;;;;;1.00;1.00;;;;;41.35;20.93;100991.03;5098805;27;45637;-65
2023/08/26 09:31:17;;;;;;;;;0.00;0.00;;;;;40.76;20.20;100995.16;5087126;27;46076;-66
2023/08/26 09:33:47;;;;;;;;;0.00;0.00;;;;;39.78;18.99;100998.28;5079077;27;45433;-65
2023/08/26 09:36:13;;;;;;;;;0.00;0.00;;;;;39.23;20.30;100988.38;5083341;27;45228;-65
2023/08/26 09:38:44;;;;;;;;;1.00;1.00;;;;;37.57;21.27;100991.81;5068681;27;45422;-65
2023/08/26 09:41:09;;;;;;;;;0.00;0.00;;;;;35.26;23.30;100996.84;5101390;27;46258;-65
2023/08/26 09:43:36;;;;;;;;;0.00;0.00;;;;;34.60;24.63;100995.84;5092867;27;45439;-65
2023/08/26 09:46:03;;;;;;;;;0.00;0.00;;;;;36.05;24.08;100989.38;5101431;27;45465;-65
2023/08/26 09:48:28;;;;;;;;;0.75;0.00;;;;;35.84;23.06;100993.56;5090054;27;45609;-65
2023/08/26 09:50:53;;;;;;;;;0.00;0.00;;;;;34.32;24.42;100990.88;5090961;27;54115;-65
2023/08/26 09:53:30;;;;;;;;;0.00;0.00;;;;;32.71;26.07;100998.47;5093505;27;73233;-65
2023/08/26 09:55:57;;;;;;;;;0.50;0.00;;;;;32.77;26.15;100985.78;5099241;27;45385;-65
2023/08/26 09:58:23;;;;;;;;;0.50;0.50;;;;;34.41;25.19;100989.53;5100835;27;45516;-65
2023/08/26 10:00:50;;;;;;;;;0.75;0.75;;;;;36.66;23.95;100981.56;5090525;27;46185;-65
2023/08/26 10:03:18;;;;;;;;;0.00;0.00;;;;;38.53;22.15;100980.69;5087333;27;45375;-65
2023/08/26 10:05:45;;;;;;;;;0.00;0.00;;;;;39.84;21.18;100976.88;5072313;27;45446;-65
2023/08/26 10:08:10;;;;;;;;;0.00;0.00;;;;;39.15;19.98;100973.84;5072131;27;69507;-65
2023/08/26 10:10:49;;;;;;;;;0.00;0.00;;;;;38.09;21.79;100980.66;5090768;27;46243;-64
2023/08/26 10:13:16;;;;;;;;;0.00;0.00;;;;;37.69;21.69;100982.53;5079123;27;45436;-64
2023/08/26 10:15:42;;;;;;;;;0.00;0.00;;;;;36.50;22.14;100976.78;5097609;27;45389;-64
2023/08/26 10:18:11;;;;;;;;;1.50;0.00;;;;;34.97;23.52;100976.47;5077002;28;45389;-64
2023/08/26 10:20:38;;;;;;;;;0.00;0.00;;;;;34.05;23.15;100986.50;5065066;27;45496;-64
2023/08/26 10:23:04;;;;;;;;;0.00;0.00;;;;;35.10;23.56;100970.75;5097416;27;45578;-64
2023/08/26 10:25:31;;;;;;;;;0.00;0.00;;;;;35.38;23.11;100963.72;5075525;27;45437;-64
2023/08/26 10:27:57;;;;;;;;;0.25;0.00;;;;;36.06;23.46;100971.69;5092542;27;45446;-64
2023/08/26 10:30:23;;;;;;;;;0.00;0.00;;;;;36.13;23.03;100968.78;5089795;27;67501;-64
2023/08/26 10:32:58;;;;;;;;;0.75;0.00;;;;;36.28;23.52;100966.34;5098607;27;45612;-64
2023/08/26 10:35:24;;;;;;;;;0.00;0.00;;;;;36.74;22.98;100972.00;5085762;27;45296;-64
2023/08/26 10:37:50;;;;;;;;;0.00;0.00;;;;;36.94;22.72;100974.34;5087694;27;45497;-65
2023/08/26 10:40:17;;;;;;;;;0.00;0.00;;;;;36.84;22.49;100968.63;5098078;27;45953;-65
2023/08/26 10:43:07;;;;;;;;;0.00;0.00;;;;;37.35;21.28;100971.47;5088936;27;45494;-65
2023/08/26 10:45:33;;;;;;;;;0.00;0.00;;;;;37.79;21.63;100956.94;5097368;27;45367;-64
2023/08/26 10:48:00;;;;;;;;;1.00;0.00;;;;;38.52;21.62;100954.00;5093537;27;45371;-64
2023/08/26 10:50:26;;;;;;;;;0.75;0.00;;;;;38.60;19.84;100956.31;5083318;27;46379;-64
2023/08/26 10:52:56;;;;;;;;;0.00;0.00;;;;;38.05;19.49;100950.63;5082335;27;45533;-64
2023/08/26 10:55:23;;;;;;;;;0.00;0.00;;;;;38.12;20.77;100955.97;5080444;27;45406;-64
2023/08/26 10:58:06;;;;;;;;;0.00;0.00;;;;;38.31;21.09;100955.69;5080004;28;45572;-64
2023/08/26 11:00:32;;;;;;;;;0.00;0.00;;;;;37.60;20.40;100954.41;5079430;27;45459;-64
2023/08/26 11:02:59;;;;;;;;;0.00;0.00;;;;;36.45;21.84;100943.47;5074805;27;46087;-64
2023/08/26 11:05:25;;;;;;;;;0.00;0.00;;;;;36.25;22.28;100939.16;5079663;27;45342;-64
2023/08/26 11:07:50;;;;;;;;;0.00;0.00;;;;;35.85;22.35;100931.66;5099136;27;45373;-64
2023/08/26 11:10:29;;;;;;;;;0.00;0.00;;;;;35.18;22.97;100930.03;5079055;27;74187;-64
2023/08/26 11:12:55;;;;;;;;;0.00;0.00;;;;;34.25;23.46;100936.59;5092922;27;46068;-64
2023/08/26 11:15:20;;;;;;;;;0.00;0.00;;;;;33.19;24.54;100936.53;5087782;27;45569;-64
2023/08/26 11:17:47;;;;;;;;;0.00;0.00;;;;;32.79;25.54;100936.84;5084931;27;45490;-64
2023/08/26 11:20:14;;;;;;;;;0.00;0.00;;;;;32.82;25.51;100926.22;5085773;27;46047;-64